Time;durP1;ratioP1;P1;durP2;ratioP2;P2;SDS_P1;SDS_P2;PMS_P1;PMS_P2;Temp;Humidity;BMP_temperature;BMP_pressure;BME280_temperature;BME280_humidity;BME280_pressure;Samples;Min_cycle;Max_cycle;Signal;HPM_P1;HPM_P2
2023/07/10 00:01:27;;;;;;;;;;;29.80;55.50;;;;;;5051297;28;20011;-72
2023/07/10 00:03:53;;;;;;;;;;;29.70;55.50;;;;;;5051119;28;20233;-72
2023/07/10 00:06:19;;;;;;;;;;;29.70;55.50;;;;;;5051819;28;19988;-71
2023/07/10 00:08:45;;;;;;;;;;;29.70;55.50;;;;;;5053256;28;19956;-72
2023/07/10 00:11:30;;;;;;;;;;;29.70;55.50;;;;;;5053554;28;19909;-71
2023/07/10 00:13:56;;;;;;;;;;;29.70;55.50;;;;;;5070414;28;19909;-72
2023/07/10 00:16:23;;;;;;;;;;;29.70;55.50;;;;;;5054836;28;19909;-72
2023/07/10 00:18:49;;;;;;;;;;;29.70;55.50;;;;;;5054388;28;19944;-71
2023/07/10 00:21:15;;;;;;;;;;;29.70;55.50;;;;;;5055118;28;19952;-72
2023/07/10 00:23:40;;;;;;;;;;;29.60;55.50;;;;;;5055043;28;19917;-72
2023/07/10 00:26:20;;;;;;;;;;;29.60;55.50;;;;;;5054765;28;19909;-72
2023/07/10 00:28:50;;;;;;;;;;;29.60;55.50;;;;;;5053464;28;19909;-72
2023/07/10 00:31:16;;;;;;;;;;;29.60;55.50;;;;;;5052330;28;19948;-72
2023/07/10 00:33:41;;;;;;;;;;;29.60;55.50;;;;;;5052758;28;19948;-72
2023/07/10 00:36:27;;;;;;;;;;;29.60;55.50;;;;;;5052615;28;19917;-72
2023/07/10 00:38:53;;;;;;;;;;;29.60;55.50;;;;;;5051982;28;19943;-71
2023/07/10 00:41:21;;;;;;;;;;;29.60;55.50;;;;;;5052143;28;19909;-72
2023/07/10 00:43:49;;;;;;;;;;;29.50;55.50;;;;;;5052422;28;19919;-72
2023/07/10 00:46:24;;;;;;;;;;;29.50;55.50;;;;;;5054917;28;20155;-72
2023/07/10 00:48:52;;;;;;;;;;;29.50;55.50;;;;;;5070091;28;19998;-71
2023/07/10 00:51:23;;;;;;;;;;;29.50;55.50;;;;;;5054257;28;20306;-72
2023/07/10 00:53:49;;;;;;;;;;;29.50;55.50;;;;;;5053234;28;19909;-72
2023/07/10 00:56:17;;;;;;;;;;;29.50;55.50;;;;;;5053005;28;19936;-72
2023/07/10 00:58:44;;;;;;;;;;;29.50;55.50;;;;;;5054325;28;19916;-71
2023/07/10 01:01:13;;;;;;;;;;;29.50;55.50;;;;;;5050527;28;19908;-72
2023/07/10 01:03:39;;;;;;;;;;;29.50;55.50;;;;;;5051192;28;19966;-72
2023/07/10 01:06:08;;;;;;;;;;;29.40;55.40;;;;;;5050865;28;19921;-72
2023/07/10 01:08:35;;;;;;;;;;;29.40;55.40;;;;;;5050070;28;19935;-72
2023/07/10 01:11:00;;;;;;;;;;;29.50;55.50;;;;;;5050317;28;19913;-72
2023/07/10 01:13:26;;;;;;;;;;;29.40;55.50;;;;;;5051692;28;19909;-72
2023/07/10 01:15:52;;;;;;;;;;;29.40;55.50;;;;;;5050389;28;20021;-72
2023/07/10 01:18:18;;;;;;;;;;;29.40;55.50;;;;;;5051929;28;20315;-72
2023/07/10 01:20:48;;;;;;;;;;;29.40;55.50;;;;;;5051170;28;19919;-72
2023/07/10 01:23:14;;;;;;;;;;;29.40;55.50;;;;;;5051554;28;20017;-72
2023/07/10 01:25:52;;;;;;;;;;;29.40;55.50;;;;;;5052173;28;19909;-71
2023/07/10 01:28:18;;;;;;;;;;;29.40;55.50;;;;;;5053586;28;19970;-72
2023/07/10 01:30:44;;;;;;;;;;;29.40;55.50;;;;;;5053171;28;19909;-72
2023/07/10 01:33:15;;;;;;;;;;;29.30;55.50;;;;;;5053927;28;19913;-72
2023/07/10 01:35:42;;;;;;;;;;;29.30;55.40;;;;;;5069844;28;19913;-71
2023/07/10 01:38:11;;;;;;;;;;;29.30;55.40;;;;;;5053749;28;19916;-71
2023/07/10 01:40:38;;;;;;;;;;;29.30;55.50;;;;;;5052669;28;20366;-72
2023/07/10 01:43:03;;;;;;;;;;;29.30;55.50;;;;;;5051499;28;19991;-72
2023/07/10 01:45:39;;;;;;;;;;;29.30;55.50;;;;;;5050664;28;19995;-71
2023/07/10 01:48:05;;;;;;;;;;;29.30;55.50;;;;;;5051974;28;20271;-72
2023/07/10 01:50:31;;;;;;;;;;;29.30;55.50;;;;;;5051414;28;19909;-71
2023/07/10 01:52:57;;;;;;;;;;;29.30;55.50;;;;;;5052546;28;20297;-72
2023/07/10 01:55:23;;;;;;;;;;;29.30;55.50;;;;;;5053766;28;19909;-72
2023/07/10 01:57:49;;;;;;;;;;;29.20;55.50;;;;;;5052429;28;19931;-71
2023/07/10 02:00:15;;;;;;;;;;;29.20;55.40;;;;;;5052258;28;19909;-72
2023/07/10 02:02:40;;;;;;;;;;;29.20;55.50;;;;;;5052558;28;20316;-72
2023/07/10 02:05:06;;;;;;;;;;;29.20;55.50;;;;;;5052889;28;19919;-71
2023/07/10 02:07:32;;;;;;;;;;;29.20;55.50;;;;;;5055303;28;19917;-71
2023/07/10 02:09:57;;;;;;;;;;;29.20;55.50;;;;;;5056670;28;19936;-72
2023/07/10 02:12:23;;;;;;;;;;;29.20;55.40;;;;;;5056886;28;19908;-72
2023/07/10 02:14:48;;;;;;;;;;;29.20;55.40;;;;;;5056424;28;19915;-72
2023/07/10 02:17:14;;;;;;;;;;;29.20;55.50;;;;;;5056851;28;19913;-72
2023/07/10 02:19:40;;;;;;;;;;;29.20;55.50;;;;;;5057486;28;19909;-71
2023/07/10 02:22:05;;;;;;;;;;;29.20;55.50;;;;;;5058272;28;19916;-71
2023/07/10 02:24:31;;;;;;;;;;;29.20;55.50;;;;;;5056485;28;19992;-72
2023/07/10 02:26:56;;;;;;;;;;;29.20;55.50;;;;;;5056083;28;20181;-71
2023/07/10 02:29:22;;;;;;;;;;;29.10;55.40;;;;;;5072945;28;19920;-71
2023/07/10 02:31:51;;;;;;;;;;;29.10;55.40;;;;;;5056776;28;19917;-72
2023/07/10 02:34:17;;;;;;;;;;;29.10;55.50;;;;;;5057099;28;19920;-72
2023/07/10 02:36:42;;;;;;;;;;;29.10;55.50;;;;;;5056845;28;19913;-72
2023/07/10 02:39:08;;;;;;;;;;;29.10;55.50;;;;;;5057540;28;19909;-72
2023/07/10 02:41:33;;;;;;;;;;;29.10;55.50;;;;;;5058504;28;19917;-72
2023/07/10 02:43:59;;;;;;;;;;;29.00;55.50;;;;;;5058026;28;19948;-71
2023/07/10 02:46:25;;;;;;;;;;;29.10;55.50;;;;;;5057165;28;19974;-72
2023/07/10 02:48:50;;;;;;;;;;;29.10;55.50;;;;;;5057274;28;19909;-72
2023/07/10 02:51:16;;;;;;;;;;;29.10;55.50;;;;;;5057978;28;19920;-72
2023/07/10 02:53:42;;;;;;;;;;;29.00;55.50;;;;;;5057766;28;19920;-72
2023/07/10 02:56:07;;;;;;;;;;;29.00;55.50;;;;;;5057763;28;19948;-72
2023/07/10 02:58:33;;;;;;;;;;;29.00;55.40;;;;;;5056725;28;20159;-72
2023/07/10 03:01:00;;;;;;;;;;;29.00;55.50;;;;;;5056507;28;19909;-72
2023/07/10 03:03:26;;;;;;;;;;;29.00;55.50;;;;;;5057990;28;19959;-72
2023/07/10 03:05:54;;;;;;;;;;;29.00;55.50;;;;;;5095626;28;19912;-70
2023/07/10 03:08:20;;;;;;;;;;;29.00;55.50;;;;;;5096273;28;20301;-72
2023/07/10 03:10:46;;;;;;;;;;;29.00;55.50;;;;;;5077678;28;19909;-71
2023/07/10 03:13:11;;;;;;;;;;;29.00;55.50;;;;;;5076786;28;20057;-72
2023/07/10 03:15:37;;;;;;;;;;;29.00;55.50;;;;;;5092262;28;19908;-72
2023/07/10 03:18:03;;;;;;;;;;;29.00;55.50;;;;;;5090504;28;19919;-72
2023/07/10 03:20:28;;;;;;;;;;;29.00;55.50;;;;;;5075237;28;19909;-72
2023/07/10 03:22:54;;;;;;;;;;;29.00;55.50;;;;;;5092070;28;19931;-72
2023/07/10 03:25:19;;;;;;;;;;;28.90;55.50;;;;;;5091983;28;20207;-71
2023/07/10 03:27:47;;;;;;;;;;;28.90;55.50;;;;;;5090879;28;19919;-72
2023/07/10 03:30:13;;;;;;;;;;;28.90;55.50;;;;;;5091507;28;19908;-71
2023/07/10 03:32:38;;;;;;;;;;;28.90;55.50;;;;;;5074946;28;19917;-72
2023/07/10 03:35:04;;;;;;;;;;;28.90;55.60;;;;;;5090668;28;19913;-72
2023/07/10 03:37:29;;;;;;;;;;;28.90;55.50;;;;;;5089295;28;19916;-72
2023/07/10 03:39:55;;;;;;;;;;;28.90;55.60;;;;;;5089742;28;19908;-72
2023/07/10 03:42:21;;;;;;;;;;;28.90;55.50;;;;;;5089941;28;20015;-72
2023/07/10 03:44:46;;;;;;;;;;;28.90;55.60;;;;;;5090012;28;20016;-72
2023/07/10 03:47:12;;;;;;;;;;;28.90;55.60;;;;;;5074251;28;19916;-72
2023/07/10 03:49:38;;;;;;;;;;;28.90;55.60;;;;;;5090013;28;19908;-72
2023/07/10 03:52:04;;;;;;;;;;;28.90;55.60;;;;;;5091874;28;19908;-71
2023/07/10 03:54:32;;;;;;;;;;;28.80;55.60;;;;;;5073891;28;19919;-72
2023/07/10 03:56:58;;;;;;;;;;;28.80;55.60;;;;;;5088718;28;19924;-72
2023/07/10 03:59:23;;;;;;;;;;;28.80;55.60;;;;;;5088697;28;19974;-71
2023/07/10 04:01:49;;;;;;;;;;;28.80;55.60;;;;;;5088838;28;20221;-72
2023/07/10 04:04:14;;;;;;;;;;;28.80;55.60;;;;;;5089334;28;19916;-71
2023/07/10 04:06:40;;;;;;;;;;;28.80;55.60;;;;;;5088883;28;19908;-72
2023/07/10 04:09:06;;;;;;;;;;;28.80;55.60;;;;;;5089075;28;19916;-71
2023/07/10 04:11:32;;;;;;;;;;;28.80;55.70;;;;;;5074444;28;20191;-72
2023/07/10 04:13:57;;;;;;;;;;;28.80;55.70;;;;;;5090126;28;19958;-72
2023/07/10 04:16:24;;;;;;;;;;;28.80;55.70;;;;;;5090452;28;20282;-72
2023/07/10 04:18:51;;;;;;;;;;;28.80;55.70;;;;;;5074539;28;20302;-72
2023/07/10 04:21:19;;;;;;;;;;;28.70;55.60;;;;;;5090462;28;19908;-72
2023/07/10 04:23:45;;;;;;;;;;;28.80;55.70;;;;;;5074452;28;19908;-72
2023/07/10 04:26:17;;;;;;;;;;;28.80;55.70;;;;;;5074080;28;19908;-71
2023/07/10 04:28:44;;;;;;;;;;;28.70;55.70;;;;;;5088577;28;20099;-72
2023/07/10 04:31:09;;;;;;;;;;;28.70;55.70;;;;;;5072044;28;20041;-72
2023/07/10 04:33:36;;;;;;;;;;;28.70;55.70;;;;;;5088761;28;20210;-72
2023/07/10 04:36:02;;;;;;;;;;;28.70;55.70;;;;;;5073749;28;19920;-72
2023/07/10 04:38:28;;;;;;;;;;;28.70;55.70;;;;;;5072319;28;19920;-72
2023/07/10 04:40:54;;;;;;;;;;;28.70;55.70;;;;;;5071577;28;19999;-71
2023/07/10 04:43:20;;;;;;;;;;;28.70;55.70;;;;;;5071739;28;20011;-74
2023/07/10 04:45:46;;;;;;;;;;;28.70;55.70;;;;;;5087027;28;20290;-72
2023/07/10 04:48:11;;;;;;;;;;;28.70;55.70;;;;;;5085217;28;19916;-71
2023/07/10 04:50:37;;;;;;;;;;;28.70;55.80;;;;;;5086842;28;19939;-72
2023/07/10 04:53:02;;;;;;;;;;;28.70;55.70;;;;;;5087748;28;19909;-72
2023/07/10 04:55:28;;;;;;;;;;;28.70;55.70;;;;;;5087608;28;19999;-72
2023/07/10 04:57:54;;;;;;;;;;;28.70;55.80;;;;;;5088424;28;20255;-71
2023/07/10 05:00:19;;;;;;;;;;;28.60;55.70;;;;;;5071116;28;19999;-72
2023/07/10 05:02:46;;;;;;;;;;;28.60;55.70;;;;;;5088330;28;19909;-72
2023/07/10 05:05:11;;;;;;;;;;;28.60;55.70;;;;;;5072126;28;19909;-72
2023/07/10 05:07:37;;;;;;;;;;;28.60;55.70;;;;;;5089127;28;19922;-72
2023/07/10 05:10:03;;;;;;;;;;;28.60;55.80;;;;;;5086583;28;20173;-72
2023/07/10 05:12:29;;;;;;;;;;;28.60;55.80;;;;;;5086897;28;19978;-72
2023/07/10 05:14:54;;;;;;;;;;;28.60;55.80;;;;;;5086529;28;19908;-72
2023/07/10 05:17:30;;;;;;;;;;;28.60;55.80;;;;;;5092324;28;19934;-72
2023/07/10 05:19:55;;;;;;;;;;;28.60;55.80;;;;;;5091843;28;19912;-72
2023/07/10 05:22:21;;;;;;;;;;;28.60;55.80;;;;;;5086223;28;19941;-72
2023/07/10 05:24:46;;;;;;;;;;;28.60;55.80;;;;;;5087742;28;19916;-72
2023/07/10 05:27:12;;;;;;;;;;;28.60;55.80;;;;;;5071928;28;20259;-72
2023/07/10 05:29:38;;;;;;;;;;;28.60;55.80;;;;;;5087588;28;19970;-72
2023/07/10 05:32:04;;;;;;;;;;;28.60;55.80;;;;;;5070719;28;19916;-71
2023/07/10 05:34:29;;;;;;;;;;;28.50;55.80;;;;;;5087683;28;19908;-72
2023/07/10 05:36:55;;;;;;;;;;;28.60;55.90;;;;;;5086713;28;19912;-72
2023/07/10 05:39:20;;;;;;;;;;;28.50;55.80;;;;;;5069692;28;19908;-72
2023/07/10 05:41:46;;;;;;;;;;;28.60;55.90;;;;;;5084765;28;19920;-72
2023/07/10 05:44:12;;;;;;;;;;;28.50;55.80;;;;;;5083868;28;19913;-71
2023/07/10 05:46:45;;;;;;;;;;;28.50;55.80;;;;;;5071501;28;19912;-72
2023/07/10 05:49:11;;;;;;;;;;;28.60;55.90;;;;;;5071629;28;20305;-72
2023/07/10 05:51:36;;;;;;;;;;;28.50;55.90;;;;;;5053330;28;20005;-72
2023/07/10 05:54:02;;;;;;;;;;;28.50;55.90;;;;;;5050888;28;19939;-72
2023/07/10 05:56:28;;;;;;;;;;;28.50;55.90;;;;;;5066960;28;19912;-72
2023/07/10 05:58:53;;;;;;;;;;;28.50;55.90;;;;;;5065691;28;20255;-72
2023/07/10 06:01:19;;;;;;;;;;;28.50;55.90;;;;;;5065185;28;19920;-72
2023/07/10 06:03:45;;;;;;;;;;;28.50;56.00;;;;;;5064660;28;19948;-72
2023/07/10 06:06:10;;;;;;;;;;;28.50;56.00;;;;;;5048213;28;19951;-73
2023/07/10 06:08:37;;;;;;;;;;;28.50;55.90;;;;;;5066129;28;19966;-72
2023/07/10 06:11:02;;;;;;;;;;;28.50;56.00;;;;;;5049268;28;19979;-72
2023/07/10 06:13:28;;;;;;;;;;;28.50;56.00;;;;;;5049351;28;20032;-72
2023/07/10 06:15:55;;;;;;;;;;;28.50;56.00;;;;;;5047899;28;19908;-72
2023/07/10 06:18:21;;;;;;;;;;;28.40;56.00;;;;;;5064045;28;19920;-72
2023/07/10 06:20:54;;;;;;;;;;;28.50;56.00;;;;;;5063727;28;19998;-72
2023/07/10 06:23:20;;;;;;;;;;;28.50;56.00;;;;;;5062671;28;20054;-72
2023/07/10 06:25:46;;;;;;;;;;;28.40;56.00;;;;;;5064113;28;19916;-71
2023/07/10 06:28:12;;;;;;;;;;;28.40;56.00;;;;;;5063972;28;19913;-72
2023/07/10 06:30:39;;;;;;;;;;;28.40;56.00;;;;;;5047555;28;19909;-72
2023/07/10 06:33:04;;;;;;;;;;;28.40;56.00;;;;;;5047354;28;20157;-72
2023/07/10 06:35:30;;;;;;;;;;;28.40;56.00;;;;;;5062438;28;19974;-71
2023/07/10 06:37:56;;;;;;;;;;;28.40;56.00;;;;;;5059630;28;19913;-72
2023/07/10 06:40:21;;;;;;;;;;;28.40;56.00;;;;;;5044632;28;19919;-72
2023/07/10 06:42:47;;;;;;;;;;;28.40;56.00;;;;;;5061171;28;20484;-72
2023/07/10 06:45:13;;;;;;;;;;;28.40;56.00;;;;;;5046510;28;20003;-72
2023/07/10 06:47:41;;;;;;;;;;;28.40;56.10;;;;;;5062683;28;19909;-71
2023/07/10 06:50:07;;;;;;;;;;;28.40;56.00;;;;;;5061250;28;20290;-72
2023/07/10 06:52:33;;;;;;;;;;;28.40;56.00;;;;;;5061276;28;19993;-72
2023/07/10 06:54:58;;;;;;;;;;;28.40;56.00;;;;;;5065001;28;19981;-72
2023/07/10 06:57:24;;;;;;;;;;;28.40;56.00;;;;;;5065078;28;19913;-72
2023/07/10 06:59:50;;;;;;;;;;;28.40;56.00;;;;;;5069714;28;19912;-72
2023/07/10 07:02:16;;;;;;;;;;;28.40;56.00;;;;;;5075812;28;19948;-72
2023/07/10 07:04:42;;;;;;;;;;;28.40;56.00;;;;;;5075639;28;19920;-72
2023/07/10 07:07:08;;;;;;;;;;;28.40;56.00;;;;;;5067367;28;19977;-71
2023/07/10 07:09:33;;;;;;;;;;;28.40;56.00;;;;;;5066555;28;20020;-72
2023/07/10 07:11:59;;;;;;;;;;;28.40;56.00;;;;;;5065994;28;19927;-72
2023/07/10 07:14:25;;;;;;;;;;;28.40;56.00;;;;;;5066358;28;19908;-72
2023/07/10 07:16:50;;;;;;;;;;;28.40;56.00;;;;;;5066578;28;20186;-72
2023/07/10 07:19:16;;;;;;;;;;;28.40;56.00;;;;;;5067395;28;20115;-72
2023/07/10 07:21:41;;;;;;;;;;;28.40;55.90;;;;;;5067132;28;19912;-72
2023/07/10 07:24:08;;;;;;;;;;;28.40;55.90;;;;;;5067536;28;19915;-72
2023/07/10 07:26:33;;;;;;;;;;;28.40;55.90;;;;;;5064680;28;19964;-72
2023/07/10 07:28:59;;;;;;;;;;;28.40;55.90;;;;;;5066987;28;19916;-72
2023/07/10 07:31:24;;;;;;;;;;;28.40;55.90;;;;;;5080929;28;19916;-71
2023/07/10 07:33:50;;;;;;;;;;;28.40;55.80;;;;;;5065138;28;19916;-71
2023/07/10 07:36:16;;;;;;;;;;;28.50;55.80;;;;;;5065851;28;19908;-70
2023/07/10 07:38:41;;;;;;;;;;;28.60;55.70;;;;;;5066220;28;19913;-72
2023/07/10 07:41:07;;;;;;;;;;;28.60;55.60;;;;;;5067385;28;19908;-70
2023/07/10 07:43:33;;;;;;;;;;;28.70;55.50;;;;;;5064850;28;19909;-71
2023/07/10 07:45:59;;;;;;;;;;;28.70;55.30;;;;;;5066110;28;19908;-71
2023/07/10 07:48:25;;;;;;;;;;;28.80;55.30;;;;;;5066718;28;19948;-71
2023/07/10 07:50:58;;;;;;;;;;;28.80;55.20;;;;;;5066769;28;19956;-70
2023/07/10 07:53:24;;;;;;;;;;;28.90;55.10;;;;;;5066413;28;19909;-71
2023/07/10 07:55:50;;;;;;;;;;;28.90;55.10;;;;;;5066604;28;20025;-69
2023/07/10 07:58:16;;;;;;;;;;;29.00;55.00;;;;;;5068015;28;20003;-71
2023/07/10 08:00:41;;;;;;;;;;;29.00;54.80;;;;;;5081544;28;20077;-71
2023/07/10 08:03:09;;;;;;;;;;;29.10;54.80;;;;;;5063017;28;19912;-71
2023/07/10 08:05:34;;;;;;;;;;;29.20;55.10;;;;;;5066160;28;19908;-70
2023/07/10 08:08:00;;;;;;;;;;;29.30;54.60;;;;;;5065356;28;19909;-70
2023/07/10 08:10:26;;;;;;;;;;;29.30;54.60;;;;;;5065556;28;20019;-70
2023/07/10 08:12:52;;;;;;;;;;;29.40;54.40;;;;;;5063380;28;19926;-70
2023/07/10 08:15:18;;;;;;;;;;;29.50;54.40;;;;;;5065402;28;19908;-71
2023/07/10 08:17:43;;;;;;;;;;;29.50;54.30;;;;;;5065531;28;20504;-70
2023/07/10 08:20:09;;;;;;;;;;;29.60;54.40;;;;;;5086179;28;19909;-71
2023/07/10 08:22:35;;;;;;;;;;;29.60;54.30;;;;;;5088074;28;20324;-71
2023/07/10 08:25:01;;;;;;;;;;;29.70;54.30;;;;;;5072177;28;19916;-71
2023/07/10 08:27:27;;;;;;;;;;;29.70;54.20;;;;;;5071721;28;19974;-71
2023/07/10 08:29:53;;;;;;;;;;;29.70;54.10;;;;;;5063983;28;20007;-71
2023/07/10 08:32:18;;;;;;;;;;;29.80;54.10;;;;;;5060646;28;19924;-70
2023/07/10 08:34:44;;;;;;;;;;;29.80;54.10;;;;;;5063646;28;19919;-71
2023/07/10 08:37:09;;;;;;;;;;;29.80;54.10;;;;;;5080024;28;19923;-71
2023/07/10 08:39:35;;;;;;;;;;;29.80;54.10;;;;;;5065770;28;19915;-71
2023/07/10 08:42:12;;;;;;;;;;;29.90;54.10;;;;;;5062447;28;20324;-71
2023/07/10 08:44:37;;;;;;;;;;;30.00;54.10;;;;;;5062204;28;19908;-71
2023/07/10 08:47:11;;;;;;;;;;;30.00;54.10;;;;;;5062360;28;19981;-71
2023/07/10 08:49:38;;;;;;;;;;;30.00;54.00;;;;;;5079831;28;19973;-71
2023/07/10 08:52:03;;;;;;;;;;;30.00;54.10;;;;;;5062470;28;19919;-71
2023/07/10 08:54:29;;;;;;;;;;;30.00;54.10;;;;;;5063964;28;19909;-71
2023/07/10 08:57:13;;;;;;;;;;;30.00;54.10;;;;;;5065317;28;20352;-71
2023/07/10 08:59:48;;;;;;;;;;;30.10;54.00;;;;;;5066236;28;19985;-71
2023/07/10 09:02:22;;;;;;;;;;;30.10;54.00;;;;;;5067399;28;19915;-71
2023/07/10 09:04:49;;;;;;;;;;;30.20;53.90;;;;;;5071572;28;19998;-71
2023/07/10 09:07:15;;;;;;;;;;;30.30;53.80;;;;;;5071299;28;19958;-72
2023/07/10 09:09:59;;;;;;;;;;;30.30;53.70;;;;;;5066484;28;19916;-71
2023/07/10 09:12:31;;;;;;;;;;;30.30;53.60;;;;;;5067050;28;20017;-72
2023/07/10 09:15:01;;;;;;;;;;;30.40;53.60;;;;;;5070663;28;20308;-72
2023/07/10 09:17:33;;;;;;;;;;;30.40;53.60;;;;;;5071225;28;19919;-72
2023/07/10 09:19:59;;;;;;;;;;;30.40;53.60;;;;;;5068897;28;19909;-72
2023/07/10 09:22:25;;;;;;;;;;;30.50;53.60;;;;;;5070026;28;20282;-71
2023/07/10 09:24:50;;;;;;;;;;;30.50;53.60;;;;;;5069002;28;20068;-72
2023/07/10 09:27:16;;;;;;;;;;;30.50;53.50;;;;;;5068230;28;20066;-72
2023/07/10 09:29:43;;;;;;;;;;;30.50;53.50;;;;;;5065063;28;19948;-72
2023/07/10 09:32:11;;;;;;;;;;;30.60;53.50;;;;;;5068621;28;20013;-72
2023/07/10 09:34:40;;;;;;;;;;;30.60;53.50;;;;;;5066901;28;19916;-72
2023/07/10 09:37:10;;;;;;;;;;;30.60;53.40;;;;;;5070907;28;19916;-72
2023/07/10 09:39:35;;;;;;;;;;;30.70;53.50;;;;;;5070369;28;19908;-72
2023/07/10 09:42:02;;;;;;;;;;;30.70;53.40;;;;;;5072829;28;20499;-72
2023/07/10 09:44:39;;;;;;;;;;;30.70;53.40;;;;;;5072622;28;19908;-72
2023/07/10 09:47:09;;;;;;;;;;;30.70;53.50;;;;;;5069231;28;19909;-72
2023/07/10 09:49:36;;;;;;;;;;;30.70;53.40;;;;;;5066745;28;19909;-72
2023/07/10 09:52:04;;;;;;;;;;;30.70;53.30;;;;;;5064462;28;19912;-72
2023/07/10 09:54:37;;;;;;;;;;;30.70;53.30;;;;;;5062117;28;20074;-72
2023/07/10 09:57:09;;;;;;;;;;;30.80;53.20;;;;;;5063453;28;20267;-72
2023/07/10 09:59:35;;;;;;;;;;;30.80;53.20;;;;;;5065201;28;19908;-72
2023/07/10 10:02:21;;;;;;;;;;;30.90;53.20;;;;;;5063356;28;19904;-72
2023/07/10 10:05:00;;;;;;;;;;;30.90;53.20;;;;;;5067537;28;19912;-72
2023/07/10 10:07:34;;;;;;;;;;;30.90;53.10;;;;;;5063623;28;20011;-72
2023/07/10 10:10:19;;;;;;;;;;;30.90;53.10;;;;;;5064576;28;20273;-72
2023/07/10 10:12:47;;;;;;;;;;;30.90;53.10;;;;;;5062583;28;19999;-71
2023/07/10 10:15:22;;;;;;;;;;;31.00;53.10;;;;;;5060846;28;20139;-72
2023/07/10 10:17:49;;;;;;;;;;;31.00;53.10;;;;;;5062659;28;20013;-72
2023/07/10 10:20:26;;;;;;;;;;;31.00;53.10;;;;;;5060286;28;20012;-72
2023/07/10 10:22:52;;;;;;;;;;;31.00;53.10;;;;;;5061627;28;19908;-72
2023/07/10 10:25:19;;;;;;;;;;;31.00;53.00;;;;;;5062413;28;20293;-72
2023/07/10 10:27:44;;;;;;;;;;;31.00;53.00;;;;;;5060417;28;19909;-72
2023/07/10 10:30:16;;;;;;;;;;;31.00;53.00;;;;;;5053257;28;19908;-72
2023/07/10 10:32:47;;;;;;;;;;;31.00;53.10;;;;;;5048906;28;20306;-72
2023/07/10 10:35:13;;;;;;;;;;;31.00;53.00;;;;;;5063918;28;19995;-71
2023/07/10 10:37:44;;;;;;;;;;;31.00;53.00;;;;;;5049236;28;20455;-72
2023/07/10 10:40:16;;;;;;;;;;;31.00;53.00;;;;;;5089613;28;19977;-71
2023/07/10 10:43:00;;;;;;;;;;;31.00;53.00;;;;;;5074759;28;19923;-71
2023/07/10 10:45:38;;;;;;;;;;;31.00;53.00;;;;;;5074110;28;19914;-71
2023/07/10 10:48:09;;;;;;;;;;;31.00;52.90;;;;;;5075082;28;20442;-71
2023/07/10 10:50:43;;;;;;;;;;;31.10;53.00;;;;;;5073455;28;19918;-71
2023/07/10 10:53:34;;;;;;;;;;;31.00;53.00;;;;;;5063802;28;19919;-72
2023/07/10 10:56:05;;;;;;;;;;;31.00;53.00;;;;;;5066819;28;20077;-72
2023/07/10 10:58:44;;;;;;;;;;;31.00;53.00;;;;;;5065959;28;19912;-71
2023/07/10 11:01:16;;;;;;;;;;;31.00;53.00;;;;;;5064462;28;19908;-72
2023/07/10 11:03:51;;;;;;;;;;;31.00;53.00;;;;;;5064138;28;20282;-71
2023/07/10 11:06:17;;;;;;;;;;;31.00;53.00;;;;;;5067262;28;19916;-71
2023/07/10 11:08:47;;;;;;;;;;;31.00;53.00;;;;;;5065663;28;19980;-72
2023/07/10 11:11:19;;;;;;;;;;;31.00;53.00;;;;;;5066264;28;19919;-71
2023/07/10 11:13:45;;;;;;;;;;;31.10;53.10;;;;;;5067917;28;20381;-71
2023/07/10 11:16:11;;;;;;;;;;;31.10;53.00;;;;;;5072882;28;19944;-71
2023/07/10 11:18:38;;;;;;;;;;;31.10;53.00;;;;;;5072195;28;19959;-71
2023/07/10 11:21:04;;;;;;;;;;;31.10;53.00;;;;;;5071604;28;19942;-71
2023/07/10 11:23:32;;;;;;;;;;;31.10;53.00;;;;;;5063508;28;19908;-71
2023/07/10 11:26:20;;;;;;;;;;;31.10;53.00;;;;;;5065374;28;20206;-71
2023/07/10 11:28:48;;;;;;;;;;;31.10;53.00;;;;;;5062619;28;19909;-71
2023/07/10 11:31:18;;;;;;;;;;;31.10;53.00;;;;;;5066687;28;19943;-71
2023/07/10 11:33:48;;;;;;;;;;;31.10;53.00;;;;;;5070017;28;20053;-70
2023/07/10 11:36:15;;;;;;;;;;;31.10;53.00;;;;;;5069708;28;20221;-71
2023/07/10 11:38:54;;;;;;;;;;;31.10;53.00;;;;;;5069179;28;19917;-71
2023/07/10 11:41:28;;;;;;;;;;;31.10;53.10;;;;;;5070327;28;19919;-71
2023/07/10 11:44:10;;;;;;;;;;;31.10;53.50;;;;;;5062679;28;19919;-71
2023/07/10 11:46:36;;;;;;;;;;;31.10;53.10;;;;;;5080914;28;19908;-71
2023/07/10 11:49:09;;;;;;;;;;;31.10;53.10;;;;;;5064487;28;19909;-71
2023/07/10 11:51:35;;;;;;;;;;;31.10;53.10;;;;;;5064253;28;20025;-71
2023/07/10 11:54:12;;;;;;;;;;;31.20;53.10;;;;;;5064200;28;20254;-71
2023/07/10 11:56:41;;;;;;;;;;;31.20;53.10;;;;;;5065194;28;19908;-72
2023/07/10 11:59:22;;;;;;;;;;;31.20;53.10;;;;;;5064968;28;19924;-71
2023/07/10 12:01:47;;;;;;;;;;;31.20;53.10;;;;;;5063427;28;20417;-72
2023/07/10 12:04:14;;;;;;;;;;;31.20;53.10;;;;;;5064344;28;19908;-71
2023/07/10 12:06:45;;;;;;;;;;;31.20;53.10;;;;;;5064481;28;20011;-70
2023/07/10 12:09:11;;;;;;;;;;;31.20;53.10;;;;;;5069570;28;20042;-71
2023/07/10 12:11:37;;;;;;;;;;;31.20;53.10;;;;;;5067782;28;19908;-71
2023/07/10 12:14:11;;;;;;;;;;;31.20;53.10;;;;;;5064782;28;20061;-72
2023/07/10 12:16:57;;;;;;;;;;;31.20;53.10;;;;;;5063807;28;19908;-72
2023/07/10 12:19:30;;;;;;;;;;;31.20;53.10;;;;;;5064219;28;20088;-71
2023/07/10 12:22:00;;;;;;;;;;;31.20;53.10;;;;;;5067264;28;20054;-71
2023/07/10 12:24:25;;;;;;;;;;;31.20;53.10;;;;;;5066893;28;20464;-72
2023/07/10 12:26:52;;;;;;;;;;;31.20;53.10;;;;;;5071866;28;19920;-71
2023/07/10 12:29:18;;;;;;;;;;;31.20;53.10;;;;;;5084881;28;19935;-71
2023/07/10 12:31:44;;;;;;;;;;;31.20;53.10;;;;;;5079679;28;20350;-72
2023/07/10 12:34:25;;;;;;;;;;;31.20;53.10;;;;;;5080103;28;19916;-71
2023/07/10 12:36:54;;;;;;;;;;;31.20;53.10;;;;;;5082005;28;19909;-71
2023/07/10 12:39:21;;;;;;;;;;;31.20;53.10;;;;;;5061963;28;19908;-71
2023/07/10 12:41:50;;;;;;;;;;;31.20;53.10;;;;;;5079929;28;19935;-71
2023/07/10 12:44:26;;;;;;;;;;;31.20;53.10;;;;;;5079277;28;19908;-71
2023/07/10 12:46:57;;;;;;;;;;;31.20;53.20;;;;;;5063056;28;19970;-71
2023/07/10 12:49:28;;;;;;;;;;;31.20;53.10;;;;;;5081885;28;19913;-71
2023/07/10 12:51:54;;;;;;;;;;;31.20;53.50;;;;;;5085604;28;19919;-72
2023/07/10 12:54:21;;;;;;;;;;;31.20;53.10;;;;;;5067200;28;19913;-70
2023/07/10 12:56:47;;;;;;;;;;;31.20;53.10;;;;;;5071035;28;19916;-71
2023/07/10 12:59:17;;;;;;;;;;;31.20;53.10;;;;;;5070379;28;19916;-71
2023/07/10 13:01:47;;;;;;;;;;;31.20;53.00;;;;;;5070267;28;19917;-71
2023/07/10 13:04:19;;;;;;;;;;;31.20;53.10;;;;;;5069155;28;19921;-71
2023/07/10 13:06:44;;;;;;;;;;;31.20;53.10;;;;;;5070433;28;19927;-71
2023/07/10 13:09:22;;;;;;;;;;;31.20;53.10;;;;;;5076144;28;20335;-71
2023/07/10 13:11:48;;;;;;;;;;;31.20;53.00;;;;;;5069898;28;19913;-71
2023/07/10 13:14:33;;;;;;;;;;;31.20;53.00;;;;;;5048878;28;19966;-71
2023/07/10 13:16:59;;;;;;;;;;;31.20;53.00;;;;;;5046644;28;19921;-72
2023/07/10 13:19:28;;;;;;;;;;;31.20;53.00;;;;;;5041750;28;20654;-71
2023/07/10 13:21:53;;;;;;;;;;;31.20;53.00;;;;;;5043445;28;19913;-73
2023/07/10 13:24:19;;;;;;;;;;;31.20;53.00;;;;;;5042272;28;20357;-71
2023/07/10 13:26:46;;;;;;;;;;;31.20;53.00;;;;;;5042084;28;20096;-71
2023/07/10 13:29:12;;;;;;;;;;;31.20;53.00;;;;;;5042100;28;19920;-72
2023/07/10 13:31:37;;;;;;;;;;;31.20;53.00;;;;;;5041641;28;19921;-72
2023/07/10 13:34:03;;;;;;;;;;;31.20;53.00;;;;;;5041911;28;19920;-71
2023/07/10 13:36:30;;;;;;;;;;;31.20;52.90;;;;;;5047403;28;20198;-71
2023/07/10 13:38:56;;;;;;;;;;;31.20;52.90;;;;;;5068671;28;19917;-71
2023/07/10 13:41:23;;;;;;;;;;;31.20;52.90;;;;;;5063806;28;20129;-72
2023/07/10 13:43:49;;;;;;;;;;;31.20;52.80;;;;;;5061639;28;19909;-71
2023/07/10 13:46:19;;;;;;;;;;;31.20;52.80;;;;;;5062490;28;19915;-72
2023/07/10 13:48:45;;;;;;;;;;;31.30;52.80;;;;;;5062933;28;19920;-72
2023/07/10 13:51:11;;;;;;;;;;;31.30;52.90;;;;;;5053946;28;20406;-71
2023/07/10 13:53:37;;;;;;;;;;;31.30;52.80;;;;;;5051656;28;19916;-71
2023/07/10 13:56:10;;;;;;;;;;;31.30;52.70;;;;;;5065689;28;19909;-71
2023/07/10 13:58:35;;;;;;;;;;;31.30;52.70;;;;;;5047927;28;19924;-71
2023/07/10 14:01:01;;;;;;;;;;;31.30;52.70;;;;;;5049260;28;19908;-71
2023/07/10 14:03:27;;;;;;;;;;;31.30;52.70;;;;;;5049875;28;19913;-71
2023/07/10 14:05:53;;;;;;;;;;;31.30;52.70;;;;;;5045787;28;19909;-71
2023/07/10 14:08:25;;;;;;;;;;;31.40;52.70;;;;;;5061799;28;20066;-71
2023/07/10 14:10:51;;;;;;;;;;;31.30;52.60;;;;;;5062500;28;19909;-71
2023/07/10 14:13:17;;;;;;;;;;;31.30;52.60;;;;;;5062649;28;19913;-71
2023/07/10 14:15:43;;;;;;;;;;;31.40;53.00;;;;;;5063392;28;19928;-72
2023/07/10 14:18:20;;;;;;;;;;;31.30;52.60;;;;;;5062304;28;20267;-72
2023/07/10 14:20:46;;;;;;;;;;;31.30;52.60;;;;;;5062381;28;20117;-73